sensor_id;sensor_type;location;lat;lon;timestamp;pressure;altitude;pressure_sealevel;temperature;humidity
11036;BME280;5571;48.110;-1.706;2022-08-16T00:00:05;100301.66;;;20.03;100.00
11036;BME280;5571;48.110;-1.706;2022-08-16T00:02:32;100282.34;;;20.09;100.00
11036;BME280;5571;48.110;-1.706;2022-08-16T00:04:58;100275.56;;;20.15;100.00
11036;BME280;5571;48.110;-1.706;2022-08-16T00:07:24;100274.44;;;20.18;100.00
11036;BME280;5571;48.110;-1.706;2022-08-16T00:09:49;100279.97;;;20.24;100.00
11036;BME280;5571;48.110;-1.706;2022-08-16T00:12:14;100277.31;;;20.24;100.00
11036;BME280;5571;48.110;-1.706;2022-08-16T00:14:40;100285.31;;;20.24;100.00
11036;BME280;5571;48.110;-1.706;2022-08-16T00:17:05;100282.63;;;20.24;100.00
11036;BME280;5571;48.110;-1.706;2022-08-16T00:19:32;100283.81;;;20.22;100.00
11036;BME280;5571;48.110;-1.706;2022-08-16T00:21:58;100273.59;;;20.17;100.00
11036;BME280;5571;48.110;-1.706;2022-08-16T00:24:24;100276.78;;;20.21;100.00
11036;BME280;5571;48.110;-1.706;2022-08-16T00:26:51;100271.59;;;20.19;100.00
11036;BME280;5571;48.110;-1.706;2022-08-16T00:29:16;100273.28;;;20.20;100.00
11036;BME280;5571;48.110;-1.706;2022-08-16T00:31:48;100282.63;;;20.24;100.00
11036;BME280;5571;48.110;-1.706;2022-08-16T00:34:14;100285.25;;;20.16;100.00
11036;BME280;5571;48.110;-1.706;2022-08-16T00:36:40;100288.00;;;19.89;100.00
11036;BME280;5571;48.110;-1.706;2022-08-16T00:39:06;100280.53;;;19.92;100.00
11036;BME280;5571;48.110;-1.706;2022-08-16T00:41:33;100290.53;;;19.73;100.00
11036;BME280;5571;48.110;-1.706;2022-08-16T00:43:59;100297.22;;;19.59;100.00
11036;BME280;5571;48.110;-1.706;2022-08-16T00:46:38;100295.69;;;19.56;100.00
11036;BME280;5571;48.110;-1.706;2022-08-16T00:49:08;100287.91;;;19.45;100.00
11036;BME280;5571;48.110;-1.706;2022-08-16T00:51:33;100294.09;;;19.46;100.00
11036;BME280;5571;48.110;-1.706;2022-08-16T00:53:59;100304.88;;;19.44;100.00
11036;BME280;5571;48.110;-1.706;2022-08-16T00:56:29;100300.97;;;19.39;100.00
11036;BME280;5571;48.110;-1.706;2022-08-16T00:58:55;100295.16;;;19.26;100.00
11036;BME280;5571;48.110;-1.706;2022-08-16T01:01:21;100291.41;;;19.18;100.00
11036;BME280;5571;48.110;-1.706;2022-08-16T01:03:49;100288.75;;;19.18;100.00
11036;BME280;5571;48.110;-1.706;2022-08-16T01:06:17;100304.81;;;19.27;100.00
11036;BME280;5571;48.110;-1.706;2022-08-16T01:08:48;100298.97;;;19.23;100.00
11036;BME280;5571;48.110;-1.706;2022-08-16T01:11:14;100293.97;;;19.10;100.00
11036;BME280;5571;48.110;-1.706;2022-08-16T01:13:41;100288.84;;;18.99;100.00
11036;BME280;5571;48.110;-1.706;2022-08-16T01:16:17;100287.16;;;18.98;100.00
11036;BME280;5571;48.110;-1.706;2022-08-16T01:21:44;100271.72;;;19.02;100.00
11036;BME280;5571;48.110;-1.706;2022-08-16T01:24:33;100265.66;;;19.09;100.00
11036;BME280;5571;48.110;-1.706;2022-08-16T01:27:05;100266.78;;;19.07;100.00
11036;BME280;5571;48.110;-1.706;2022-08-16T01:29:55;100266.34;;;19.11;100.00
11036;BME280;5571;48.110;-1.706;2022-08-16T01:32:21;100257.31;;;19.22;100.00
11036;BME280;5571;48.110;-1.706;2022-08-16T01:34:46;100261.03;;;19.29;100.00
11036;BME280;5571;48.110;-1.706;2022-08-16T01:37:13;100257.09;;;19.33;100.00
11036;BME280;5571;48.110;-1.706;2022-08-16T01:39:39;100260.22;;;19.29;100.00
11036;BME280;5571;48.110;-1.706;2022-08-16T01:42:05;100257.25;;;19.32;100.00
11036;BME280;5571;48.110;-1.706;2022-08-16T01:44:33;100247.28;;;19.34;100.00
11036;BME280;5571;48.110;-1.706;2022-08-16T01:46:58;100247.66;;;19.39;100.00
11036;BME280;5571;48.110;-1.706;2022-08-16T01:49:30;100248.19;;;19.42;100.00
11036;BME280;5571;48.110;-1.706;2022-08-16T01:52:05;100248.56;;;19.30;100.00
11036;BME280;5571;48.110;-1.706;2022-08-16T01:54:30;100249.31;;;19.22;100.00
11036;BME280;5571;48.110;-1.706;2022-08-16T01:56:56;100242.44;;;19.19;100.00
11036;BME280;5571;48.110;-1.706;2022-08-16T01:59:22;100244.00;;;19.22;100.00
11036;BME280;5571;48.110;-1.706;2022-08-16T02:01:50;100238.75;;;19.30;100.00
11036;BME280;5571;48.110;-1.706;2022-08-16T02:04:17;100240.66;;;19.38;100.00
11036;BME280;5571;48.110;-1.706;2022-08-16T02:06:42;100240.38;;;19.41;100.00
11036;BME280;5571;48.110;-1.706;2022-08-16T02:09:09;100247.66;;;19.39;100.00
11036;BME280;5571;48.110;-1.706;2022-08-16T02:11:36;100250.75;;;19.44;100.00
11036;BME280;5571;48.110;-1.706;2022-08-16T02:14:03;100243.50;;;19.36;100.00
11036;BME280;5571;48.110;-1.706;2022-08-16T02:16:29;100227.50;;;19.36;100.00
11036;BME280;5571;48.110;-1.706;2022-08-16T02:18:54;100229.72;;;19.41;100.00
11036;BME280;5571;48.110;-1.706;2022-08-16T02:21:20;100234.63;;;19.45;100.00
11036;BME280;5571;48.110;-1.706;2022-08-16T02:23:45;100238.16;;;19.36;100.00
11036;BME280;5571;48.110;-1.706;2022-08-16T02:26:12;100240.53;;;19.39;100.00
11036;BME280;5571;48.110;-1.706;2022-08-16T02:28:39;100243.69;;;19.25;100.00
11036;BME280;5571;48.110;-1.706;2022-08-16T02:31:07;100239.59;;;19.31;100.00
11036;BME280;5571;48.110;-1.706;2022-08-16T02:33:34;100242.56;;;19.28;100.00
11036;BME280;5571;48.110;-1.706;2022-08-16T02:35:59;100237.53;;;19.24;100.00
11036;BME280;5571;48.110;-1.706;2022-08-16T02:38:27;100238.63;;;19.32;100.00
11036;BME280;5571;48.110;-1.706;2022-08-16T02:40:53;100230.84;;;19.38;100.00
11036;BME280;5571;48.110;-1.706;2022-08-16T02:43:18;100223.97;;;19.45;100.00
11036;BME280;5571;48.110;-1.706;2022-08-16T02:45:44;100232.94;;;19.44;100.00
11036;BME280;5571;48.110;-1.706;2022-08-16T02:48:09;100228.13;;;19.48;100.00
11036;BME280;5571;48.110;-1.706;2022-08-16T02:50:35;100226.00;;;19.51;100.00
11036;BME280;5571;48.110;-1.706;2022-08-16T02:53:00;100223.19;;;19.53;100.00
11036;BME280;5571;48.110;-1.706;2022-08-16T02:55:25;100218.25;;;19.58;100.00
11036;BME280;5571;48.110;-1.706;2022-08-16T02:57:51;100214.28;;;19.62;100.00
11036;BME280;5571;48.110;-1.706;2022-08-16T03:00:17;100206.28;;;19.62;100.00
11036;BME280;5571;48.110;-1.706;2022-08-16T03:02:42;100214.16;;;19.63;100.00
11036;BME280;5571;48.110;-1.706;2022-08-16T03:05:12;100205.31;;;19.63;100.00
11036;BME280;5571;48.110;-1.706;2022-08-16T03:07:37;100215.53;;;19.50;100.00
11036;BME280;5571;48.110;-1.706;2022-08-16T03:10:05;100215.03;;;19.37;100.00
11036;BME280;5571;48.110;-1.706;2022-08-16T03:12:31;100205.56;;;19.24;100.00
11036;BME280;5571;48.110;-1.706;2022-08-16T03:14:56;100192.16;;;19.16;100.00
11036;BME280;5571;48.110;-1.706;2022-08-16T03:17:23;100186.50;;;19.19;100.00
11036;BME280;5571;48.110;-1.706;2022-08-16T03:19:48;100195.53;;;19.18;100.00
11036;BME280;5571;48.110;-1.706;2022-08-16T03:22:15;100193.59;;;19.11;100.00
11036;BME280;5571;48.110;-1.706;2022-08-16T03:24:40;100196.13;;;19.12;100.00
11036;BME280;5571;48.110;-1.706;2022-08-16T03:27:06;100202.41;;;19.11;100.00
11036;BME280;5571;48.110;-1.706;2022-08-16T03:29:33;100206.22;;;19.09;100.00
11036;BME280;5571;48.110;-1.706;2022-08-16T03:31:59;100201.34;;;19.04;100.00
11036;BME280;5571;48.110;-1.706;2022-08-16T03:34:26;100214.81;;;19.03;100.00
11036;BME280;5571;48.110;-1.706;2022-08-16T03:36:51;100211.16;;;19.04;100.00
11036;BME280;5571;48.110;-1.706;2022-08-16T03:39:17;100208.75;;;19.10;100.00
11036;BME280;5571;48.110;-1.706;2022-08-16T03:41:42;100204.84;;;19.05;100.00
11036;BME280;5571;48.110;-1.706;2022-08-16T03:44:08;100206.53;;;19.06;100.00
11036;BME280;5571;48.110;-1.706;2022-08-16T03:46:34;100212.09;;;19.12;100.00
11036;BME280;5571;48.110;-1.706;2022-08-16T03:48:59;100208.19;;;19.07;100.00
11036;BME280;5571;48.110;-1.706;2022-08-16T03:51:25;100200.78;;;19.10;100.00
11036;BME280;5571;48.110;-1.706;2022-08-16T03:53:50;100199.09;;;19.09;100.00
11036;BME280;5571;48.110;-1.706;2022-08-16T03:56:16;100193.00;;;19.17;100.00
11036;BME280;5571;48.110;-1.706;2022-08-16T03:58:41;100186.84;;;19.16;100.00
11036;BME280;5571;48.110;-1.706;2022-08-16T04:01:07;100192.31;;;19.15;100.00
11036;BME280;5571;48.110;-1.706;2022-08-16T04:03:32;100194.81;;;19.16;100.00
11036;BME280;5571;48.110;-1.706;2022-08-16T04:05:58;100189.34;;;19.18;100.00
11036;BME280;5571;48.110;-1.706;2022-08-16T04:08:23;100201.25;;;19.23;100.00
11036;BME280;5571;48.110;-1.706;2022-08-16T04:10:50;100195.28;;;19.30;100.00
11036;BME280;5571;48.110;-1.706;2022-08-16T04:13:16;100186.44;;;19.11;100.00
11036;BME280;5571;48.110;-1.706;2022-08-16T04:15:41;100189.56;;;19.07;100.00
11036;BME280;5571;48.110;-1.706;2022-08-16T04:18:07;100198.16;;;19.01;100.00
11036;BME280;5571;48.110;-1.706;2022-08-16T04:20:34;100193.03;;;18.90;100.00
11036;BME280;5571;48.110;-1.706;2022-08-16T04:23:00;100203.22;;;18.67;100.00
11036;BME280;5571;48.110;-1.706;2022-08-16T04:25:26;100201.53;;;18.66;100.00
11036;BME280;5571;48.110;-1.706;2022-08-16T04:27:52;100198.22;;;18.64;100.00
11036;BME280;5571;48.110;-1.706;2022-08-16T04:30:19;100205.03;;;18.66;100.00
11036;BME280;5571;48.110;-1.706;2022-08-16T04:32:46;100200.28;;;18.70;100.00
11036;BME280;5571;48.110;-1.706;2022-08-16T04:35:16;100190.66;;;18.50;100.00
11036;BME280;5571;48.110;-1.706;2022-08-16T04:37:45;100191.94;;;18.55;100.00
11036;BME280;5571;48.110;-1.706;2022-08-16T04:40:12;100187.88;;;18.51;100.00
11036;BME280;5571;48.110;-1.706;2022-08-16T04:42:38;100197.13;;;18.57;100.00
11036;BME280;5571;48.110;-1.706;2022-08-16T04:45:05;100189.41;;;18.54;100.00
11036;BME280;5571;48.110;-1.706;2022-08-16T04:47:32;100183.97;;;18.55;100.00
11036;BME280;5571;48.110;-1.706;2022-08-16T04:49:58;100181.00;;;18.49;100.00
11036;BME280;5571;48.110;-1.706;2022-08-16T04:52:24;100184.09;;;18.54;100.00
11036;BME280;5571;48.110;-1.706;2022-08-16T04:54:49;100185.47;;;18.58;100.00
11036;BME280;5571;48.110;-1.706;2022-08-16T04:57:14;100185.88;;;18.63;100.00
11036;BME280;5571;48.110;-1.706;2022-08-16T04:59:40;100183.19;;;18.72;100.00
11036;BME280;5571;48.110;-1.706;2022-08-16T05:02:06;100198.59;;;18.69;100.00
11036;BME280;5571;48.110;-1.706;2022-08-16T05:04:31;100203.13;;;18.59;100.00
11036;BME280;5571;48.110;-1.706;2022-08-16T05:06:57;100199.50;;;18.60;100.00
11036;BME280;5571;48.110;-1.706;2022-08-16T05:09:23;100198.09;;;18.46;100.00
11036;BME280;5571;48.110;-1.706;2022-08-16T05:11:48;100196.00;;;18.50;100.00
11036;BME280;5571;48.110;-1.706;2022-08-16T05:14:14;100197.13;;;18.57;100.00
11036;BME280;5571;48.110;-1.706;2022-08-16T05:16:39;100189.50;;;18.62;100.00
11036;BME280;5571;48.110;-1.706;2022-08-16T05:19:05;100184.31;;;18.70;100.00
11036;BME280;5571;48.110;-1.706;2022-08-16T05:21:31;100193.38;;;18.77;100.00
11036;BME280;5571;48.110;-1.706;2022-08-16T05:23:57;100191.78;;;18.84;100.00
11036;BME280;5571;48.110;-1.706;2022-08-16T05:26:23;100199.22;;;18.81;100.00
11036;BME280;5571;48.110;-1.706;2022-08-16T05:28:49;100196.53;;;18.90;100.00
11036;BME280;5571;48.110;-1.706;2022-08-16T05:31:14;100203.94;;;18.96;100.00
11036;BME280;5571;48.110;-1.706;2022-08-16T05:33:41;100202.75;;;18.81;100.00
11036;BME280;5571;48.110;-1.706;2022-08-16T05:36:06;100195.38;;;18.93;100.00
11036;BME280;5571;48.110;-1.706;2022-08-16T05:38:32;100203.94;;;18.96;100.00
11036;BME280;5571;48.110;-1.706;2022-08-16T05:40:58;100199.19;;;18.90;100.00
11036;BME280;5571;48.110;-1.706;2022-08-16T05:43:24;100197.06;;;18.94;100.00
11036;BME280;5571;48.110;-1.706;2022-08-16T05:45:50;100202.34;;;19.03;100.00
11036;BME280;5571;48.110;-1.706;2022-08-16T05:48:16;100205.09;;;19.11;100.00
11036;BME280;5571;48.110;-1.706;2022-08-16T05:50:41;100206.63;;;19.14;100.00
11036;BME280;5571;48.110;-1.706;2022-08-16T05:53:07;100209.84;;;18.90;100.00
11036;BME280;5571;48.110;-1.706;2022-08-16T05:55:32;100203.22;;;18.94;100.00
11036;BME280;5571;48.110;-1.706;2022-08-16T05:57:57;100206.53;;;19.06;100.00
11036;BME280;5571;48.110;-1.706;2022-08-16T06:00:23;100201.75;;;19.09;100.00
11036;BME280;5571;48.110;-1.706;2022-08-16T06:02:50;100212.47;;;19.17;100.00
11036;BME280;5571;48.110;-1.706;2022-08-16T06:05:15;100214.16;;;19.18;100.00
11036;BME280;5571;48.110;-1.706;2022-08-16T06:07:41;100219.03;;;19.23;100.00
11036;BME280;5571;48.110;-1.706;2022-08-16T06:10:07;100216.59;;;19.30;100.00
11036;BME280;5571;48.110;-1.706;2022-08-16T06:12:33;100209.84;;;19.35;100.00
11036;BME280;5571;48.110;-1.706;2022-08-16T06:15:02;100206.34;;;19.35;100.00
11036;BME280;5571;48.110;-1.706;2022-08-16T06:17:28;100211.81;;;19.33;100.00
11036;BME280;5571;48.110;-1.706;2022-08-16T06:19:54;100207.47;;;19.32;100.00
11036;BME280;5571;48.110;-1.706;2022-08-16T06:22:19;100212.50;;;19.35;100.00
11036;BME280;5571;48.110;-1.706;2022-08-16T06:24:45;100209.69;;;19.37;100.00
11036;BME280;5571;48.110;-1.706;2022-08-16T06:27:11;100217.38;;;19.40;100.00
11036;BME280;5571;48.110;-1.706;2022-08-16T06:29:36;100223.13;;;19.45;100.00
11036;BME280;5571;48.110;-1.706;2022-08-16T06:32:02;100224.50;;;19.49;100.00
11036;BME280;5571;48.110;-1.706;2022-08-16T06:34:27;100226.84;;;19.52;100.00
11036;BME280;5571;48.110;-1.706;2022-08-16T06:36:53;100239.97;;;19.45;100.00
11036;BME280;5571;48.110;-1.706;2022-08-16T06:39:19;100245.81;;;19.49;100.00
11036;BME280;5571;48.110;-1.706;2022-08-16T06:41:44;100238.00;;;19.38;100.00
11036;BME280;5571;48.110;-1.706;2022-08-16T06:44:09;100246.28;;;19.35;100.00
11036;BME280;5571;48.110;-1.706;2022-08-16T06:46:35;100244.47;;;19.35;100.00
11036;BME280;5571;48.110;-1.706;2022-08-16T06:49:04;100252.16;;;19.38;100.00
11036;BME280;5571;48.110;-1.706;2022-08-16T06:51:29;100252.31;;;19.37;100.00
11036;BME280;5571;48.110;-1.706;2022-08-16T06:53:55;100248.66;;;19.38;100.00
11036;BME280;5571;48.110;-1.706;2022-08-16T06:56:20;100251.63;;;19.35;100.00
11036;BME280;5571;48.110;-1.706;2022-08-16T06:58:46;100252.31;;;19.37;100.00
11036;BME280;5571;48.110;-1.706;2022-08-16T07:01:11;100253.97;;;19.38;100.00
11036;BME280;5571;48.110;-1.706;2022-08-16T07:03:36;100241.78;;;19.45;100.00
11036;BME280;5571;48.110;-1.706;2022-08-16T07:06:02;100251.03;;;19.41;100.00
11036;BME280;5571;48.110;-1.706;2022-08-16T07:08:28;100251.72;;;19.43;100.00
11036;BME280;5571;48.110;-1.706;2022-08-16T07:10:54;100253.63;;;19.33;100.00
11036;BME280;5571;48.110;-1.706;2022-08-16T07:13:20;100263.25;;;19.43;100.00
11036;BME280;5571;48.110;-1.706;2022-08-16T07:15:46;100255.00;;;19.37;100.00
11036;BME280;5571;48.110;-1.706;2022-08-16T07:18:11;100263.31;;;19.24;100.00
11036;BME280;5571;48.110;-1.706;2022-08-16T07:20:39;100260.66;;;19.24;100.00
11036;BME280;5571;48.110;-1.706;2022-08-16T07:23:05;100252.31;;;19.19;100.00
11036;BME280;5571;48.110;-1.706;2022-08-16T07:25:32;100254.66;;;19.22;100.00
11036;BME280;5571;48.110;-1.706;2022-08-16T07:27:58;100258.84;;;19.24;100.00
11036;BME280;5571;48.110;-1.706;2022-08-16T07:30:24;100256.41;;;19.31;100.00
11036;BME280;5571;48.110;-1.706;2022-08-16T07:32:50;100252.38;;;19.27;100.00
11036;BME280;5571;48.110;-1.706;2022-08-16T07:35:16;100257.00;;;19.25;100.00
11036;BME280;5571;48.110;-1.706;2022-08-16T07:37:42;100256.03;;;19.26;100.00
11036;BME280;5571;48.110;-1.706;2022-08-16T07:40:09;100254.88;;;19.29;100.00
11036;BME280;5571;48.110;-1.706;2022-08-16T07:42:34;100256.28;;;19.33;100.00
11036;BME280;5571;48.110;-1.706;2022-08-16T07:44:59;100248.81;;;19.36;100.00
11036;BME280;5571;48.110;-1.706;2022-08-16T07:47:25;100255.09;;;19.45;100.00
11036;BME280;5571;48.110;-1.706;2022-08-16T07:49:50;100253.69;;;19.41;100.00
11036;BME280;5571;48.110;-1.706;2022-08-16T07:52:16;100248.19;;;19.42;100.00
11036;BME280;5571;48.110;-1.706;2022-08-16T07:54:41;100246.69;;;19.40;100.00
11036;BME280;5571;48.110;-1.706;2022-08-16T07:57:06;100259.16;;;19.39;100.00
11036;BME280;5571;48.110;-1.706;2022-08-16T07:59:32;100258.50;;;19.37;100.00
11036;BME280;5571;48.110;-1.706;2022-08-16T08:01:57;100267.28;;;19.20;100.00
11036;BME280;5571;48.110;-1.706;2022-08-16T08:04:22;100259.13;;;19.21;100.00
11036;BME280;5571;48.110;-1.706;2022-08-16T08:06:48;100265.06;;;19.15;100.00
11036;BME280;5571;48.110;-1.706;2022-08-16T08:09:13;100267.03;;;19.13;100.00
11036;BME280;5571;48.110;-1.706;2022-08-16T08:11:39;100269.56;;;18.88;100.00
11036;BME280;5571;48.110;-1.706;2022-08-16T08:14:05;100257.56;;;18.74;100.00
11036;BME280;5571;48.110;-1.706;2022-08-16T08:16:32;100248.44;;;18.76;100.00
11036;BME280;5571;48.110;-1.706;2022-08-16T08:18:59;100238.34;;;18.70;100.00
11036;BME280;5571;48.110;-1.706;2022-08-16T08:21:25;100226.03;;;18.79;100.00
11036;BME280;5571;48.110;-1.706;2022-08-16T08:23:51;100236.50;;;18.81;100.00
11036;BME280;5571;48.110;-1.706;2022-08-16T08:26:17;100233.72;;;18.82;100.00
11036;BME280;5571;48.110;-1.706;2022-08-16T08:28:43;100237.47;;;18.79;100.00
11036;BME280;5571;48.110;-1.706;2022-08-16T08:31:09;100248.63;;;18.93;100.00
11036;BME280;5571;48.110;-1.706;2022-08-16T08:33:35;100237.88;;;19.12;100.00
11036;BME280;5571;48.110;-1.706;2022-08-16T08:36:04;100259.84;;;19.23;100.00
11036;BME280;5571;48.110;-1.706;2022-08-16T08:38:32;100271.31;;;19.24;100.00
11036;BME280;5571;48.110;-1.706;2022-08-16T08:40:59;100272.22;;;19.15;100.00
11036;BME280;5571;48.110;-1.706;2022-08-16T08:43:24;100283.06;;;19.04;100.00
11036;BME280;5571;48.110;-1.706;2022-08-16T08:45:51;100289.63;;;19.09;100.00
11036;BME280;5571;48.110;-1.706;2022-08-16T08:48:18;100276.84;;;19.13;100.00
11036;BME280;5571;48.110;-1.706;2022-08-16T08:50:44;100299.16;;;19.12;100.00
11036;BME280;5571;48.110;-1.706;2022-08-16T08:53:09;100292.41;;;19.17;100.00
11036;BME280;5571;48.110;-1.706;2022-08-16T08:55:35;100291.84;;;19.14;100.00
11036;BME280;5571;48.110;-1.706;2022-08-16T08:58:01;100286.44;;;19.06;100.00
11036;BME280;5571;48.110;-1.706;2022-08-16T09:00:26;100294.59;;;18.95;100.00
11036;BME280;5571;48.110;-1.706;2022-08-16T09:02:55;100286.25;;;19.07;100.00
11036;BME280;5571;48.110;-1.706;2022-08-16T09:05:22;100280.50;;;19.12;100.00
11036;BME280;5571;48.110;-1.706;2022-08-16T09:07:49;100281.84;;;18.89;100.00
11036;BME280;5571;48.110;-1.706;2022-08-16T09:10:14;100271.22;;;18.89;100.00
11036;BME280;5571;48.110;-1.706;2022-08-16T09:12:40;100272.69;;;19.10;100.00
11036;BME280;5571;48.110;-1.706;2022-08-16T09:15:08;100269.50;;;19.24;100.00
11036;BME280;5571;48.110;-1.706;2022-08-16T09:17:34;100277.47;;;19.24;100.00
11036;BME280;5571;48.110;-1.706;2022-08-16T09:19:59;100285.81;;;19.39;100.00
11036;BME280;5571;48.110;-1.706;2022-08-16T09:22:26;100283.50;;;19.27;100.00
11036;BME280;5571;48.110;-1.706;2022-08-16T09:24:53;100285.19;;;19.28;100.00
11036;BME280;5571;48.110;-1.706;2022-08-16T09:27:20;100280.78;;;19.63;100.00
11036;BME280;5571;48.110;-1.706;2022-08-16T09:29:45;100287.03;;;19.90;100.00
11036;BME280;5571;48.110;-1.706;2022-08-16T09:32:10;100286.19;;;19.72;100.00
11036;BME280;5571;48.110;-1.706;2022-08-16T09:34:36;100277.41;;;19.97;100.00
11036;BME280;5571;48.110;-1.706;2022-08-16T09:37:01;100286.81;;;20.27;100.00
11036;BME280;5571;48.110;-1.706;2022-08-16T09:39:27;100295.50;;;20.29;100.00
11036;BME280;5571;48.110;-1.706;2022-08-16T09:41:53;100285.44;;;20.40;100.00
11036;BME280;5571;48.110;-1.706;2022-08-16T09:44:24;100289.56;;;20.52;100.00
11036;BME280;5571;48.110;-1.706;2022-08-16T09:46:50;100283.47;;;20.68;100.00
11036;BME280;5571;48.110;-1.706;2022-08-16T09:49:16;100292.94;;;20.88;100.00
11036;BME280;5571;48.110;-1.706;2022-08-16T09:51:42;100307.38;;;20.78;100.00
11036;BME280;5571;48.110;-1.706;2022-08-16T09:54:08;100304.88;;;20.76;100.00
11036;BME280;5571;48.110;-1.706;2022-08-16T09:56:39;100315.25;;;20.79;100.00
11036;BME280;5571;48.110;-1.706;2022-08-16T09:59:07;100312.28;;;20.90;100.00
11036;BME280;5571;48.110;-1.706;2022-08-16T10:01:33;100316.69;;;20.99;100.00
11036;BME280;5571;48.110;-1.706;2022-08-16T10:04:00;100321.19;;;20.99;100.00
11036;BME280;5571;48.110;-1.706;2022-08-16T10:06:26;100329.16;;;20.91;100.00
11036;BME280;5571;48.110;-1.706;2022-08-16T10:08:52;100326.50;;;20.91;100.00
11036;BME280;5571;48.110;-1.706;2022-08-16T10:11:18;100336.25;;;20.74;100.00
11036;BME280;5571;48.110;-1.706;2022-08-16T10:14:03;100331.09;;;20.81;100.00
11036;BME280;5571;48.110;-1.706;2022-08-16T10:16:28;100331.72;;;21.00;100.00
11036;BME280;5571;48.110;-1.706;2022-08-16T10:18:54;100318.66;;;21.23;100.00
11036;BME280;5571;48.110;-1.706;2022-08-16T10:21:19;100320.78;;;21.62;100.00
11036;BME280;5571;48.110;-1.706;2022-08-16T10:23:46;100324.66;;;21.67;100.00
11036;BME280;5571;48.110;-1.706;2022-08-16T10:26:14;100324.03;;;21.81;100.00
11036;BME280;5571;48.110;-1.706;2022-08-16T10:28:40;100330.38;;;21.80;100.00
11036;BME280;5571;48.110;-1.706;2022-08-16T10:31:08;100325.22;;;21.87;100.00
11036;BME280;5571;48.110;-1.706;2022-08-16T10:33:34;100329.69;;;21.78;100.00
11036;BME280;5571;48.110;-1.706;2022-08-16T10:36:02;100320.66;;;21.71;100.00
11036;BME280;5571;48.110;-1.706;2022-08-16T10:38:30;100321.50;;;21.72;100.00
11036;BME280;5571;48.110;-1.706;2022-08-16T10:40:56;100327.72;;;21.97;100.00
11036;BME280;5571;48.110;-1.706;2022-08-16T10:43:21;100320.22;;;22.00;100.00
11036;BME280;5571;48.110;-1.706;2022-08-16T10:45:47;100336.13;;;22.18;100.00
11036;BME280;5571;48.110;-1.706;2022-08-16T10:48:16;100317.88;;;21.97;100.00
11036;BME280;5571;48.110;-1.706;2022-08-16T10:50:42;100312.03;;;22.10;100.00
11036;BME280;5571;48.110;-1.706;2022-08-16T10:53:07;100332.44;;;21.95;100.00
11036;BME280;5571;48.110;-1.706;2022-08-16T10:55:35;100327.53;;;21.82;100.00
11036;BME280;5571;48.110;-1.706;2022-08-16T10:58:06;100332.53;;;21.77;100.00
11036;BME280;5571;48.110;-1.706;2022-08-16T11:00:34;100335.03;;;21.78;100.00
11036;BME280;5571;48.110;-1.706;2022-08-16T11:03:00;100351.75;;;21.72;100.00
11036;BME280;5571;48.110;-1.706;2022-08-16T11:05:29;100360.25;;;21.68;100.00
11036;BME280;5571;48.110;-1.706;2022-08-16T11:07:56;100351.06;;;21.78;100.00
11036;BME280;5571;48.110;-1.706;2022-08-16T11:10:29;100359.78;;;21.80;100.00
11036;BME280;5571;48.110;-1.706;2022-08-16T11:12:55;100362.22;;;21.58;100.00
11036;BME280;5571;48.110;-1.706;2022-08-16T11:15:21;100358.44;;;21.68;100.00
11036;BME280;5571;48.110;-1.706;2022-08-16T11:17:47;100358.09;;;21.79;100.00
11036;BME280;5571;48.110;-1.706;2022-08-16T11:20:14;100359.94;;;21.79;100.00
11036;BME280;5571;48.110;-1.706;2022-08-16T11:22:43;100362.78;;;21.69;100.00
11036;BME280;5571;48.110;-1.706;2022-08-16T11:25:10;100364.91;;;21.66;100.00
11036;BME280;5571;48.110;-1.706;2022-08-16T11:27:38;100366.53;;;21.93;100.00
11036;BME280;5571;48.110;-1.706;2022-08-16T11:30:04;100380.91;;;21.92;100.00
11036;BME280;5571;48.110;-1.706;2022-08-16T11:32:30;100377.69;;;21.88;100.00
11036;BME280;5571;48.110;-1.706;2022-08-16T11:34:57;100384.00;;;21.79;100.00
11036;BME280;5571;48.110;-1.706;2022-08-16T11:37:22;100392.03;;;21.79;100.00
11036;BME280;5571;48.110;-1.706;2022-08-16T11:39:48;100377.53;;;21.89;100.00
11036;BME280;5571;48.110;-1.706;2022-08-16T11:42:13;100379.03;;;21.92;100.00
11036;BME280;5571;48.110;-1.706;2022-08-16T11:44:39;100370.03;;;22.01;100.00
11036;BME280;5571;48.110;-1.706;2022-08-16T11:47:04;100365.88;;;22.07;100.00
11036;BME280;5571;48.110;-1.706;2022-08-16T11:49:30;100360.53;;;22.07;100.00
11036;BME280;5571;48.110;-1.706;2022-08-16T11:51:55;100368.91;;;22.12;100.00
11036;BME280;5571;48.110;-1.706;2022-08-16T11:54:20;100380.09;;;22.15;100.00
11036;BME280;5571;48.110;-1.706;2022-08-16T11:56:46;100385.97;;;22.11;100.00
11036;BME280;5571;48.110;-1.706;2022-08-16T11:59:11;100383.63;;;22.08;99.97
11036;BME280;5571;48.110;-1.706;2022-08-16T12:01:36;100383.28;;;22.19;99.65
11036;BME280;5571;48.110;-1.706;2022-08-16T12:04:02;100378.81;;;22.36;98.83
11036;BME280;5571;48.110;-1.706;2022-08-16T12:06:28;100381.81;;;22.57;95.98
11036;BME280;5571;48.110;-1.706;2022-08-16T12:08:54;100380.31;;;22.79;96.00
11036;BME280;5571;48.110;-1.706;2022-08-16T12:11:22;100379.56;;;23.09;94.76
11036;BME280;5571;48.110;-1.706;2022-08-16T12:13:48;100378.03;;;23.23;94.01
11036;BME280;5571;48.110;-1.706;2022-08-16T12:16:14;100391.91;;;23.34;92.19
11036;BME280;5571;48.110;-1.706;2022-08-16T12:18:40;100389.06;;;23.28;93.05
11036;BME280;5571;48.110;-1.706;2022-08-16T12:21:05;100381.19;;;23.26;91.14
11036;BME280;5571;48.110;-1.706;2022-08-16T12:23:31;100378.84;;;23.31;92.02
11036;BME280;5571;48.110;-1.706;2022-08-16T12:25:57;100368.31;;;23.30;89.99
11036;BME280;5571;48.110;-1.706;2022-08-16T12:28:22;100372.38;;;23.64;89.53
11036;BME280;5571;48.110;-1.706;2022-08-16T12:30:48;100381.31;;;23.80;86.57
11036;BME280;5571;48.110;-1.706;2022-08-16T12:33:15;100372.63;;;23.78;86.97
11036;BME280;5571;48.110;-1.706;2022-08-16T12:35:42;100378.28;;;24.14;84.30
11036;BME280;5571;48.110;-1.706;2022-08-16T12:38:10;100382.25;;;24.26;83.33